Time;durP1;ratioP1;P1;durP2;ratioP2;P2;SDS_P1;SDS_P2;PMS_P1;PMS_P2;Temp;Humidity;BMP_temperature;BMP_pressure;BME280_temperature;BME280_humidity;BME280_pressure;Samples;Min_cycle;Max_cycle;Signal;HPM_P1;HPM_P2
2023/06/25 00:00:08;;;;;;;;;13.00;13.00;;;;;;;;5082255;27;45965;-74
2023/06/25 00:02:33;;;;;;;;;13.67;13.67;;;;;;;;5100948;27;45276;-74
2023/06/25 00:04:59;;;;;;;;;15.67;14.33;;;;;;;;5100588;27;45553;-74
2023/06/25 00:07:24;;;;;;;;;17.67;16.67;;;;;;;;5100232;27;46122;-73
2023/06/25 00:09:55;;;;;;;;;14.00;13.33;;;;;;;;5081884;27;45388;-74
2023/06/25 00:12:21;;;;;;;;;12.67;12.33;;;;;;;;5099905;27;45255;-73
2023/06/25 00:14:46;;;;;;;;;13.00;13.00;;;;;;;;5099108;27;45721;-74
2023/06/25 00:17:13;;;;;;;;;13.00;12.33;;;;;;;;5100402;27;45456;-73
2023/06/25 00:19:41;;;;;;;;;11.00;11.00;;;;;;;;5100174;27;45358;-74
2023/06/25 00:22:06;;;;;;;;;12.00;12.00;;;;;;;;5058081;28;45851;-73
2023/06/25 00:24:31;;;;;;;;;11.00;11.00;;;;;;;;5059579;28;45516;-73
2023/06/25 00:26:56;;;;;;;;;12.33;12.00;;;;;;;;5074858;28;45409;-73
2023/06/25 00:29:22;;;;;;;;;13.33;13.00;;;;;;;;5088862;27;45330;-73
2023/06/25 00:31:47;;;;;;;;;13.00;13.00;;;;;;;;5100427;27;45578;-73
2023/06/25 00:34:12;;;;;;;;;13.33;13.33;;;;;;;;5090595;27;45566;-73
2023/06/25 00:36:40;;;;;;;;;11.33;11.33;;;;;;;;5079356;28;45538;-73
2023/06/25 00:39:06;;;;;;;;;12.67;11.67;;;;;;;;5080429;28;45339;-73
2023/06/25 00:41:31;;;;;;;;;11.67;11.00;;;;;;;;5083536;28;45149;-73
2023/06/25 00:43:58;;;;;;;;;11.00;11.00;;;;;;;;5082076;28;45512;-73
2023/06/25 00:46:25;;;;;;;;;11.67;11.33;;;;;;;;5078982;28;46114;-73
2023/06/25 00:48:50;;;;;;;;;11.00;11.00;;;;;;;;5044574;28;46133;-73
2023/06/25 00:51:16;;;;;;;;;9.00;9.00;;;;;;;;5062623;28;45280;-73
2023/06/25 00:53:42;;;;;;;;;12.33;11.67;;;;;;;;5062804;28;45291;-73
2023/06/25 00:56:07;;;;;;;;;11.00;10.00;;;;;;;;5069024;28;45470;-73
2023/06/25 00:58:38;;;;;;;;;7.00;7.00;;;;;;;;5073954;28;45599;-74
2023/06/25 01:01:06;;;;;;;;;12.33;12.33;;;;;;;;5072033;28;45154;-73
2023/06/25 01:03:36;;;;;;;;;9.67;9.67;;;;;;;;5076619;28;45685;-73
2023/06/25 01:06:10;;;;;;;;;10.33;10.33;;;;;;;;5078311;28;45316;-73
2023/06/25 01:08:37;;;;;;;;;13.00;13.00;;;;;;;;5075245;28;46444;-73
2023/06/25 01:11:04;;;;;;;;;13.33;13.33;;;;;;;;5069441;28;45420;-73
2023/06/25 01:13:30;;;;;;;;;11.33;11.33;;;;;;;;5082390;28;45323;-73
2023/06/25 01:15:55;;;;;;;;;12.33;12.00;;;;;;;;5082550;28;46233;-73
2023/06/25 01:18:22;;;;;;;;;12.00;11.67;;;;;;;;5082823;28;45512;-73
2023/06/25 01:20:51;;;;;;;;;13.33;13.00;;;;;;;;5064556;28;45428;-73
2023/06/25 01:23:16;;;;;;;;;9.67;9.67;;;;;;;;5082535;28;45451;-73
2023/06/25 01:25:48;;;;;;;;;11.00;11.00;;;;;;;;5064247;28;47180;-73
2023/06/25 01:28:13;;;;;;;;;12.00;11.33;;;;;;;;5082588;28;45449;-74
2023/06/25 01:30:38;;;;;;;;;11.67;11.67;;;;;;;;5102460;27;45252;-73
2023/06/25 01:33:04;;;;;;;;;12.33;12.33;;;;;;;;5103114;27;45455;-73
2023/06/25 01:35:29;;;;;;;;;11.00;11.00;;;;;;;;5102818;27;45337;-73
2023/06/25 01:37:54;;;;;;;;;10.33;10.33;;;;;;;;5084045;27;46017;-73
2023/06/25 01:40:20;;;;;;;;;11.33;10.33;;;;;;;;5102950;27;45344;-73
2023/06/25 01:42:45;;;;;;;;;9.67;9.00;;;;;;;;5102207;27;45247;-73
2023/06/25 01:45:11;;;;;;;;;10.33;10.00;;;;;;;;5084376;27;48290;-73
2023/06/25 01:47:37;;;;;;;;;10.00;10.00;;;;;;;;5084033;27;45488;-73
2023/06/25 01:50:03;;;;;;;;;9.33;9.33;;;;;;;;5088280;27;45317;-73
2023/06/25 01:52:28;;;;;;;;;11.00;11.00;;;;;;;;5081447;28;45573;-73
2023/06/25 01:54:54;;;;;;;;;9.67;9.67;;;;;;;;5081232;28;45905;-73
2023/06/25 01:57:19;;;;;;;;;11.00;11.00;;;;;;;;5081025;28;45248;-73
2023/06/25 01:59:44;;;;;;;;;10.00;10.00;;;;;;;;5081698;28;45238;-73
2023/06/25 02:02:09;;;;;;;;;12.33;11.67;;;;;;;;5081853;28;45704;-73
2023/06/25 02:04:34;;;;;;;;;9.67;9.67;;;;;;;;5081617;28;46281;-73
2023/06/25 02:07:00;;;;;;;;;12.00;10.33;;;;;;;;5081653;28;45234;-73
2023/06/25 02:09:25;;;;;;;;;12.00;12.00;;;;;;;;5063867;28;45490;-73
2023/06/25 02:11:50;;;;;;;;;11.67;11.67;;;;;;;;5081889;28;45298;-73
2023/06/25 02:14:16;;;;;;;;;14.33;13.33;;;;;;;;5081555;28;45436;-73
2023/06/25 02:16:41;;;;;;;;;14.00;13.33;;;;;;;;5081707;28;45298;-73
2023/06/25 02:19:06;;;;;;;;;11.33;11.00;;;;;;;;5081966;28;45422;-73
2023/06/25 02:21:31;;;;;;;;;9.00;9.00;;;;;;;;5063023;28;46242;-73
2023/06/25 02:23:57;;;;;;;;;11.50;10.00;;;;;;;;5081521;28;45383;-73
2023/06/25 02:26:22;;;;;;;;;11.00;10.67;;;;;;;;5081743;28;45264;-73
2023/06/25 02:28:47;;;;;;;;;13.00;12.67;;;;;;;;5086040;27;45286;-73
2023/06/25 02:31:12;;;;;;;;;13.00;12.00;;;;;;;;5101972;27;45419;-73
2023/06/25 02:33:38;;;;;;;;;9.67;8.00;;;;;;;;5101470;27;45278;-73
2023/06/25 02:36:03;;;;;;;;;10.00;10.00;;;;;;;;5101745;27;45253;-73
2023/06/25 02:38:28;;;;;;;;;10.33;10.33;;;;;;;;5083725;27;45339;-73
2023/06/25 02:40:53;;;;;;;;;10.00;10.00;;;;;;;;5101888;27;45659;-73
2023/06/25 02:43:19;;;;;;;;;10.33;9.00;;;;;;;;5101376;27;46490;-73
2023/06/25 02:45:44;;;;;;;;;11.33;11.33;;;;;;;;5101922;27;45354;-73
2023/06/25 02:48:09;;;;;;;;;14.00;11.67;;;;;;;;5102055;27;45355;-73
2023/06/25 02:50:34;;;;;;;;;9.00;9.00;;;;;;;;5101691;27;45484;-72
2023/06/25 02:52:59;;;;;;;;;11.33;11.00;;;;;;;;5101492;27;46179;-72
2023/06/25 02:55:25;;;;;;;;;10.33;10.33;;;;;;;;5101598;27;45206;-73
2023/06/25 02:57:50;;;;;;;;;11.00;11.00;;;;;;;;5101885;27;45477;-73
2023/06/25 03:00:15;;;;;;;;;10.67;10.67;;;;;;;;5101564;27;45491;-73
2023/06/25 03:02:40;;;;;;;;;10.00;10.00;;;;;;;;5100857;27;45254;-73
2023/06/25 03:05:06;;;;;;;;;10.33;10.33;;;;;;;;5101586;27;45279;-73
2023/06/25 03:07:31;;;;;;;;;9.67;9.67;;;;;;;;5101256;27;45322;-73
2023/06/25 03:09:56;;;;;;;;;12.67;11.33;;;;;;;;5101418;27;45269;-73
2023/06/25 03:12:21;;;;;;;;;11.67;10.00;;;;;;;;5082845;27;46361;-73
2023/06/25 03:14:46;;;;;;;;;11.67;10.67;;;;;;;;5101300;27;45326;-73
2023/06/25 03:17:12;;;;;;;;;12.00;12.00;;;;;;;;5083059;27;45355;-73
2023/06/25 03:19:37;;;;;;;;;9.67;9.67;;;;;;;;5101281;27;45531;-73
2023/06/25 03:22:02;;;;;;;;;12.67;12.67;;;;;;;;5101039;27;46000;-73
2023/06/25 03:24:27;;;;;;;;;11.00;10.00;;;;;;;;5101294;27;45352;-73
2023/06/25 03:26:52;;;;;;;;;10.67;10.67;;;;;;;;5101390;27;45227;-73
2023/06/25 03:29:18;;;;;;;;;10.67;10.00;;;;;;;;5092394;27;45347;-74
2023/06/25 03:31:43;;;;;;;;;11.33;10.00;;;;;;;;5080652;28;45557;-73
2023/06/25 03:34:08;;;;;;;;;12.67;10.33;;;;;;;;5080547;28;45347;-73
2023/06/25 03:36:33;;;;;;;;;11.00;11.00;;;;;;;;5080409;28;45188;-73
2023/06/25 03:38:58;;;;;;;;;12.33;12.33;;;;;;;;5080536;28;45428;-73
2023/06/25 03:41:24;;;;;;;;;10.00;10.00;;;;;;;;5080556;28;46388;-73
2023/06/25 03:43:50;;;;;;;;;12.33;12.00;;;;;;;;5079991;28;45490;-73
2023/06/25 03:46:15;;;;;;;;;9.00;8.33;;;;;;;;5080515;28;45446;-73
2023/06/25 03:48:42;;;;;;;;;9.67;9.67;;;;;;;;5062243;28;45975;-73
2023/06/25 03:51:07;;;;;;;;;11.00;11.00;;;;;;;;5079929;28;45341;-73
2023/06/25 03:53:32;;;;;;;;;9.33;9.33;;;;;;;;5061958;28;45388;-73
2023/06/25 03:55:57;;;;;;;;;10.33;10.00;;;;;;;;5062152;28;45502;-73
2023/06/25 03:58:22;;;;;;;;;9.67;9.67;;;;;;;;5061808;28;46130;-73
2023/06/25 04:00:48;;;;;;;;;11.67;11.67;;;;;;;;5080067;28;45499;-73
2023/06/25 04:03:13;;;;;;;;;10.33;10.00;;;;;;;;5080301;28;45411;-73
2023/06/25 04:05:38;;;;;;;;;10.33;9.33;;;;;;;;5062029;28;45345;-73
2023/06/25 04:08:03;;;;;;;;;12.67;12.00;;;;;;;;5079920;28;45663;-73
2023/06/25 04:10:29;;;;;;;;;10.00;10.00;;;;;;;;5061631;28;47066;-73
2023/06/25 04:12:54;;;;;;;;;13.67;11.67;;;;;;;;5061261;28;46124;-73
2023/06/25 04:15:19;;;;;;;;;12.67;11.00;;;;;;;;5078495;28;45684;-73
2023/06/25 04:17:46;;;;;;;;;13.33;11.67;;;;;;;;5078971;28;45291;-73
2023/06/25 04:20:11;;;;;;;;;8.67;8.00;;;;;;;;5079826;28;46164;-73
2023/06/25 04:22:37;;;;;;;;;10.33;10.33;;;;;;;;5079493;28;45266;-73
2023/06/25 04:25:02;;;;;;;;;11.33;11.00;;;;;;;;5061823;28;45281;-73
2023/06/25 04:27:27;;;;;;;;;12.00;11.00;;;;;;;;5079913;28;45256;-73
2023/06/25 04:29:52;;;;;;;;;11.33;11.33;;;;;;;;5074775;27;48273;-73
2023/06/25 04:32:17;;;;;;;;;12.67;11.00;;;;;;;;5073423;27;45395;-73
2023/06/25 04:34:43;;;;;;;;;12.67;12.67;;;;;;;;5065165;28;45412;-73
2023/06/25 04:37:08;;;;;;;;;10.67;10.67;;;;;;;;5059195;28;45364;-73
2023/06/25 04:39:33;;;;;;;;;12.33;12.33;;;;;;;;5059368;28;45270;-74
2023/06/25 04:41:58;;;;;;;;;12.33;11.00;;;;;;;;5059303;28;45202;-74
2023/06/25 04:44:24;;;;;;;;;13.33;11.67;;;;;;;;5059627;28;45548;-73
2023/06/25 04:46:49;;;;;;;;;12.67;11.67;;;;;;;;5041029;28;46112;-73
2023/06/25 04:49:15;;;;;;;;;12.00;11.00;;;;;;;;5059415;28;46031;-73
2023/06/25 04:51:44;;;;;;;;;12.67;12.67;;;;;;;;5040847;28;45306;-73
2023/06/25 04:54:09;;;;;;;;;13.67;13.67;;;;;;;;5041418;28;45596;-73
2023/06/25 04:56:34;;;;;;;;;15.00;15.00;;;;;;;;5066698;28;45390;-73
2023/06/25 04:58:59;;;;;;;;;12.33;12.33;;;;;;;;5077618;28;45397;-73
2023/06/25 05:01:24;;;;;;;;;14.67;14.00;;;;;;;;5059338;28;45366;-73
2023/06/25 05:03:50;;;;;;;;;12.00;11.67;;;;;;;;5059250;28;45298;-73
2023/06/25 05:06:15;;;;;;;;;12.00;12.00;;;;;;;;5058261;28;45250;-75
2023/06/25 05:08:40;;;;;;;;;11.33;11.33;;;;;;;;5063400;28;45332;-74
2023/06/25 05:11:05;;;;;;;;;13.00;13.00;;;;;;;;5078806;28;45302;-73
2023/06/25 05:13:31;;;;;;;;;10.67;10.00;;;;;;;;5081186;28;45309;-73
2023/06/25 05:15:56;;;;;;;;;11.67;11.67;;;;;;;;5082619;28;45480;-72
2023/06/25 05:18:21;;;;;;;;;13.33;13.00;;;;;;;;5080512;28;46780;-73
2023/06/25 05:20:46;;;;;;;;;14.67;14.67;;;;;;;;5065609;28;45356;-73
2023/06/25 05:23:11;;;;;;;;;12.00;11.00;;;;;;;;5086196;28;45445;-74
2023/06/25 05:25:37;;;;;;;;;11.33;11.33;;;;;;;;5071871;28;45610;-73
2023/06/25 05:28:02;;;;;;;;;15.67;14.33;;;;;;;;5069725;28;46396;-74
2023/06/25 05:30:28;;;;;;;;;14.67;13.67;;;;;;;;5102186;27;45136;-73
2023/06/25 05:32:54;;;;;;;;;12.00;11.67;;;;;;;;5082503;27;45308;-73
2023/06/25 05:35:19;;;;;;;;;14.33;12.33;;;;;;;;5073684;28;46153;-71
2023/06/25 05:37:44;;;;;;;;;13.33;13.33;;;;;;;;5064062;28;47581;-72
2023/06/25 05:40:09;;;;;;;;;12.00;12.00;;;;;;;;5064240;28;45350;-72
2023/06/25 05:42:34;;;;;;;;;12.33;11.00;;;;;;;;5080026;28;45626;-73
2023/06/25 05:45:00;;;;;;;;;14.00;12.33;;;;;;;;5081369;28;45309;-72
2023/06/25 05:47:25;;;;;;;;;13.00;12.00;;;;;;;;5063950;28;46517;-72
2023/06/25 05:49:50;;;;;;;;;11.67;11.33;;;;;;;;5081533;28;45413;-73
2023/06/25 05:52:15;;;;;;;;;10.00;10.00;;;;;;;;5080858;28;45448;-72
2023/06/25 05:54:40;;;;;;;;;13.33;13.33;;;;;;;;5082121;28;45484;-72
2023/06/25 05:57:06;;;;;;;;;12.33;11.33;;;;;;;;5063948;28;47016;-72
2023/06/25 05:59:31;;;;;;;;;11.67;11.67;;;;;;;;5081578;28;45587;-73
2023/06/25 06:01:56;;;;;;;;;11.33;11.00;;;;;;;;5082195;28;45293;-72
2023/06/25 06:04:21;;;;;;;;;12.00;12.00;;;;;;;;5063200;28;45935;-72
2023/06/25 06:06:46;;;;;;;;;13.33;11.67;;;;;;;;5081068;28;45370;-73
2023/06/25 06:09:11;;;;;;;;;10.00;10.00;;;;;;;;5063648;28;45332;-72
2023/06/25 06:11:37;;;;;;;;;11.33;11.00;;;;;;;;5082131;28;45492;-72
2023/06/25 06:14:02;;;;;;;;;11.33;11.33;;;;;;;;5081965;28;45332;-72
2023/06/25 06:16:27;;;;;;;;;13.00;12.00;;;;;;;;5081884;28;45677;-72
2023/06/25 06:18:52;;;;;;;;;12.00;11.67;;;;;;;;5081890;28;45464;-73
2023/06/25 06:21:17;;;;;;;;;13.33;12.33;;;;;;;;5063490;28;45269;-72
2023/06/25 06:23:42;;;;;;;;;10.33;10.33;;;;;;;;5063318;28;47056;-73
2023/06/25 06:26:08;;;;;;;;;13.00;13.00;;;;;;;;5081703;28;45507;-73
2023/06/25 06:28:33;;;;;;;;;11.00;11.00;;;;;;;;5083983;27;45271;-72
2023/06/25 06:30:58;;;;;;;;;12.33;11.67;;;;;;;;5102348;27;45432;-72
2023/06/25 06:33:23;;;;;;;;;13.00;13.00;;;;;;;;5102147;27;45430;-72
2023/06/25 06:35:48;;;;;;;;;13.00;13.00;;;;;;;;5101676;27;46086;-72
2023/06/25 06:38:14;;;;;;;;;14.67;14.33;;;;;;;;5100735;27;45464;-72
2023/06/25 06:40:39;;;;;;;;;12.67;12.00;;;;;;;;5102130;27;45444;-73
2023/06/25 06:43:04;;;;;;;;;12.33;11.33;;;;;;;;5101553;27;45310;-72
2023/06/25 06:45:29;;;;;;;;;13.00;12.33;;;;;;;;5101960;27;45369;-74
2023/06/25 06:47:54;;;;;;;;;13.33;12.00;;;;;;;;5083440;27;45317;-72
2023/06/25 06:50:20;;;;;;;;;15.00;14.33;;;;;;;;5101922;27;45494;-72
2023/06/25 06:52:45;;;;;;;;;14.33;11.67;;;;;;;;5101656;27;45290;-72
2023/06/25 06:55:10;;;;;;;;;17.00;15.00;;;;;;;;5083260;27;48245;-72
2023/06/25 06:57:36;;;;;;;;;14.33;13.33;;;;;;;;5083211;27;45395;-73
2023/06/25 07:00:02;;;;;;;;;11.67;11.67;;;;;;;;5101886;27;45255;-72
2023/06/25 07:02:27;;;;;;;;;13.00;13.00;;;;;;;;5101627;27;45333;-74
2023/06/25 07:04:52;;;;;;;;;13.33;12.67;;;;;;;;5101481;27;45283;-72
2023/06/25 07:07:18;;;;;;;;;13.67;13.67;;;;;;;;5100707;27;45209;-73
2023/06/25 07:09:53;;;;;;;;;14.33;14.00;;;;;;;;5100923;27;45288;-72
2023/06/25 07:12:19;;;;;;;;;14.00;14.00;;;;;;;;5101447;27;45290;-72
2023/06/25 07:14:44;;;;;;;;;13.00;13.00;;;;;;;;5082754;27;48252;-73
2023/06/25 07:17:09;;;;;;;;;13.00;13.00;;;;;;;;5101323;27;45260;-73
2023/06/25 07:19:34;;;;;;;;;13.00;13.00;;;;;;;;5101478;27;45218;-73
2023/06/25 07:21:59;;;;;;;;;15.00;15.00;;;;;;;;5092153;27;45181;-72
2023/06/25 07:24:24;;;;;;;;;13.33;13.33;;;;;;;;5080832;28;45234;-73
2023/06/25 07:26:50;;;;;;;;;7.00;7.00;;;;;;;;5080791;28;45393;-73
2023/06/25 07:29:15;;;;;;;;;15.67;14.33;;;;;;;;5088982;27;45472;-73
2023/06/25 07:31:40;;;;;;;;;14.00;14.00;;;;;;;;5101032;27;45527;-73
2023/06/25 07:34:05;;;;;;;;;14.00;13.00;;;;;;;;5101177;27;45369;-72
2023/06/25 07:36:30;;;;;;;;;14.00;13.33;;;;;;;;5100741;27;45372;-72
2023/06/25 07:39:02;;;;;;;;;15.00;15.00;;;;;;;;5082683;27;45353;-73
2023/06/25 07:41:27;;;;;;;;;14.00;13.00;;;;;;;;5082558;27;47030;-74
2023/06/25 07:43:55;;;;;;;;;14.33;13.67;;;;;;;;5100336;27;45585;-73
2023/06/25 07:46:20;;;;;;;;;13.00;12.33;;;;;;;;5082527;27;45727;-72
2023/06/25 07:48:45;;;;;;;;;15.33;15.00;;;;;;;;5100714;27;45318;-73
2023/06/25 07:51:10;;;;;;;;;15.00;15.00;;;;;;;;5082197;27;46333;-72
2023/06/25 07:53:35;;;;;;;;;12.00;11.67;;;;;;;;5100873;27;45208;-73
2023/06/25 07:56:01;;;;;;;;;15.67;15.67;;;;;;;;5082283;27;45945;-73
2023/06/25 07:58:26;;;;;;;;;14.33;13.00;;;;;;;;5100659;27;45256;-73
2023/06/25 08:00:51;;;;;;;;;14.67;14.67;;;;;;;;5100621;27;45356;-72
2023/06/25 08:03:16;;;;;;;;;11.67;11.67;;;;;;;;5082355;27;47393;-73
2023/06/25 08:05:41;;;;;;;;;15.00;15.00;;;;;;;;5081880;27;45328;-73
2023/06/25 08:08:06;;;;;;;;;17.00;16.00;;;;;;;;5100756;27;45318;-73
2023/06/25 08:10:32;;;;;;;;;13.33;13.33;;;;;;;;5082204;27;46815;-73
2023/06/25 08:12:57;;;;;;;;;13.67;12.00;;;;;;;;5082193;27;47343;-73
2023/06/25 08:15:22;;;;;;;;;13.00;13.00;;;;;;;;5100446;27;45372;-73
2023/06/25 08:17:47;;;;;;;;;15.67;15.67;;;;;;;;5082347;27;45299;-73
2023/06/25 08:20:13;;;;;;;;;14.00;14.00;;;;;;;;5100276;27;45574;-73
2023/06/25 08:22:38;;;;;;;;;14.33;14.00;;;;;;;;5100099;27;45314;-73
2023/06/25 08:25:07;;;;;;;;;14.00;13.33;;;;;;;;5100520;27;45382;-73
2023/06/25 08:27:32;;;;;;;;;14.00;14.00;;;;;;;;5082379;27;45312;-73
2023/06/25 08:29:57;;;;;;;;;13.33;13.00;;;;;;;;5085876;27;45472;-73
2023/06/25 08:32:22;;;;;;;;;16.67;15.00;;;;;;;;5079745;28;45254;-73
2023/06/25 08:34:48;;;;;;;;;14.00;12.67;;;;;;;;5079671;28;45347;-73
2023/06/25 08:37:13;;;;;;;;;14.00;14.00;;;;;;;;5079691;28;45220;-73
2023/06/25 08:39:38;;;;;;;;;13.67;13.67;;;;;;;;5079668;28;45295;-73
2023/06/25 08:42:03;;;;;;;;;13.33;13.33;;;;;;;;5061079;28;48201;-73
2023/06/25 08:44:29;;;;;;;;;14.33;14.00;;;;;;;;5079576;28;45256;-73
2023/06/25 08:46:54;;;;;;;;;14.67;14.67;;;;;;;;5079846;28;45240;-72
2023/06/25 08:49:21;;;;;;;;;15.00;14.33;;;;;;;;5061294;28;46541;-73
2023/06/25 08:51:47;;;;;;;;;17.00;17.00;;;;;;;;5079236;28;46204;-73
2023/06/25 08:54:12;;;;;;;;;14.00;14.00;;;;;;;;5079407;28;45282;-73
2023/06/25 08:56:37;;;;;;;;;13.00;13.00;;;;;;;;5079362;28;45375;-73
2023/06/25 08:59:02;;;;;;;;;14.00;14.00;;;;;;;;5079416;28;45380;-73
2023/06/25 09:01:28;;;;;;;;;15.33;15.33;;;;;;;;5082168;28;45369;-73
2023/06/25 09:03:53;;;;;;;;;13.00;13.00;;;;;;;;5064840;28;45379;-73
2023/06/25 09:06:18;;;;;;;;;14.33;14.33;;;;;;;;5082975;28;45377;-73
2023/06/25 09:08:44;;;;;;;;;15.00;15.00;;;;;;;;5082853;28;45439;-73
2023/06/25 09:11:10;;;;;;;;;13.33;13.00;;;;;;;;5080281;28;45642;-73
2023/06/25 09:13:36;;;;;;;;;15.00;15.00;;;;;;;;5081585;27;45411;-75
2023/06/25 09:16:06;;;;;;;;;16.67;16.67;;;;;;;;5082609;27;46598;-75
2023/06/25 09:18:31;;;;;;;;;14.00;14.00;;;;;;;;5058339;28;45545;-74
2023/06/25 09:21:00;;;;;;;;;14.33;13.33;;;;;;;;5073950;28;45455;-74
2023/06/25 09:23:25;;;;;;;;;19.00;19.00;;;;;;;;5071817;28;45284;-76
2023/06/25 09:25:51;;;;;;;;;15.67;15.67;;;;;;;;5075813;28;45334;-74
2023/06/25 09:28:16;;;;;;;;;15.00;15.00;;;;;;;;5073379;28;45543;-75
2023/06/25 09:30:42;;;;;;;;;16.33;15.67;;;;;;;;5054762;28;47825;-75
2023/06/25 09:33:10;;;;;;;;;17.33;17.33;;;;;;;;5054468;28;45249;-74
2023/06/25 09:35:35;;;;;;;;;15.67;15.67;;;;;;;;5071525;28;45551;-75
2023/06/25 09:38:01;;;;;;;;;15.33;14.67;;;;;;;;5058470;28;45418;-76
2023/06/25 09:40:26;;;;;;;;;16.33;15.00;;;;;;;;5077294;28;45464;-76
2023/06/25 09:42:52;;;;;;;;;14.33;14.00;;;;;;;;5082354;28;45319;-75
2023/06/25 09:45:19;;;;;;;;;14.67;14.33;;;;;;;;5086838;28;45323;-74
2023/06/25 09:47:45;;;;;;;;;13.33;13.33;;;;;;;;5066429;28;45372;-75
2023/06/25 09:50:14;;;;;;;;;17.00;15.67;;;;;;;;5085005;28;45432;-76
2023/06/25 09:52:40;;;;;;;;;14.00;13.00;;;;;;;;5078296;28;45205;-77
2023/06/25 09:55:07;;;;;;;;;15.33;15.33;;;;;;;;5073652;28;45264;-77
2023/06/25 09:57:32;;;;;;;;;14.00;14.00;;;;;;;;5073576;28;45390;-77
2023/06/25 09:59:58;;;;;;;;;16.00;16.00;;;;;;;;5064762;28;48249;-78
2023/06/25 10:02:24;;;;;;;;;15.67;13.67;;;;;;;;5077577;28;45443;-76
2023/06/25 10:04:49;;;;;;;;;14.67;13.00;;;;;;;;5071353;28;46003;-76
2023/06/25 10:07:14;;;;;;;;;13.33;13.33;;;;;;;;5072567;28;45544;-75
2023/06/25 10:09:50;;;;;;;;;14.00;14.00;;;;;;;;5079107;28;46456;-76
2023/06/25 10:12:17;;;;;;;;;14.33;14.33;;;;;;;;5085069;28;45365;-77
2023/06/25 10:14:43;;;;;;;;;16.00;16.00;;;;;;;;5066273;28;45263;-76
2023/06/25 10:17:08;;;;;;;;;14.67;14.67;;;;;;;;5085622;28;45267;-75
2023/06/25 10:19:33;;;;;;;;;13.67;13.67;;;;;;;;5087358;28;45220;-77
2023/06/25 10:22:00;;;;;;;;;14.00;14.00;;;;;;;;5071494;28;45161;-75
2023/06/25 10:24:25;;;;;;;;;14.67;14.67;;;;;;;;5089553;28;45313;-75
2023/06/25 10:26:52;;;;;;;;;14.67;14.67;;;;;;;;5087994;28;45340;-76
2023/06/25 10:29:17;;;;;;;;;15.33;15.33;;;;;;;;5077689;27;47547;-74
2023/06/25 10:31:44;;;;;;;;;14.33;14.00;;;;;;;;5086422;27;45392;-75
2023/06/25 10:34:10;;;;;;;;;16.33;16.00;;;;;;;;5107321;27;45305;-74
2023/06/25 10:36:38;;;;;;;;;13.00;12.33;;;;;;;;5102188;27;45357;-73
2023/06/25 10:39:04;;;;;;;;;14.33;14.33;;;;;;;;5103951;27;45345;-75
2023/06/25 10:41:30;;;;;;;;;14.00;14.00;;;;;;;;5103290;27;45350;-80
2023/06/25 10:43:56;;;;;;;;;12.67;12.00;;;;;;;;5101607;27;45351;-74
2023/06/25 10:46:26;;;;;;;;;15.67;15.67;;;;;;;;5102357;27;45307;-75
2023/06/25 10:48:51;;;;;;;;;16.33;15.33;;;;;;;;5083800;27;48365;-75
2023/06/25 10:51:19;;;;;;;;;13.67;13.33;;;;;;;;5101831;27;45246;-74
2023/06/25 10:53:44;;;;;;;;;13.67;13.33;;;;;;;;5102010;27;45226;-75
2023/06/25 10:56:09;;;;;;;;;14.00;14.00;;;;;;;;5083060;27;45490;-75
2023/06/25 10:58:34;;;;;;;;;13.67;13.67;;;;;;;;5104460;27;45243;-75
2023/06/25 11:01:00;;;;;;;;;11.67;10.33;;;;;;;;5103543;27;45475;-74
2023/06/25 11:03:25;;;;;;;;;15.00;14.00;;;;;;;;5076945;27;45207;-75
2023/06/25 11:05:51;;;;;;;;;14.33;14.33;;;;;;;;5073183;28;45374;-75
2023/06/25 11:08:16;;;;;;;;;12.33;12.33;;;;;;;;5077677;28;46350;-76
2023/06/25 11:10:41;;;;;;;;;13.67;13.67;;;;;;;;5070268;28;45449;-77
2023/06/25 11:13:10;;;;;;;;;10.67;10.67;;;;;;;;5075283;28;45286;-75
2023/06/25 11:15:36;;;;;;;;;12.33;12.00;;;;;;;;5059148;28;47327;-76
2023/06/25 11:18:01;;;;;;;;;13.67;13.33;;;;;;;;5067876;28;45344;-74
2023/06/25 11:20:27;;;;;;;;;11.00;11.00;;;;;;;;5066633;28;45276;-76
2023/06/25 11:22:53;;;;;;;;;14.00;13.00;;;;;;;;5065599;28;44725;-75
2023/06/25 11:25:21;;;;;;;;;15.67;15.67;;;;;;;;5049410;28;47329;-75
2023/06/25 11:27:48;;;;;;;;;18.00;16.00;;;;;;;;5048988;28;47170;-76
2023/06/25 11:30:14;;;;;;;;;13.33;13.33;;;;;;;;5097400;27;44752;-76
2023/06/25 11:32:41;;;;;;;;;13.33;13.00;;;;;;;;5076417;27;45439;-74
2023/06/25 11:35:10;;;;;;;;;14.67;14.67;;;;;;;;5054628;28;46589;-74
2023/06/25 11:37:44;;;;;;;;;12.67;12.67;;;;;;;;5061759;28;47098;-76
2023/06/25 11:40:19;;;;;;;;;15.00;15.00;;;;;;;;5079800;28;45203;-76
2023/06/25 11:42:44;;;;;;;;;15.00;15.00;;;;;;;;5082567;28;45203;-75
2023/06/25 11:45:10;;;;;;;;;13.00;13.00;;;;;;;;5062850;28;45300;-75
2023/06/25 11:47:35;;;;;;;;;13.33;13.33;;;;;;;;5080937;28;46175;-75
2023/06/25 11:50:01;;;;;;;;;14.00;13.67;;;;;;;;5085360;28;45331;-75
2023/06/25 11:52:27;;;;;;;;;12.67;12.67;;;;;;;;5085056;28;45305;-75
2023/06/25 11:54:52;;;;;;;;;13.33;13.33;;;;;;;;5084561;28;45640;-75
2023/06/25 11:57:18;;;;;;;;;15.67;15.67;;;;;;;;5064385;28;47236;-76
2023/06/25 11:59:44;;;;;;;;;13.00;13.00;;;;;;;;5061039;28;45449;-76
2023/06/25 12:02:09;;;;;;;;;12.67;12.67;;;;;;;;5072138;28;45441;-74
2023/06/25 12:04:35;;;;;;;;;16.33;15.67;;;;;;;;5061943;28;46017;-75
2023/06/25 12:07:00;;;;;;;;;13.00;12.00;;;;;;;;5082403;28;45355;-75
2023/06/25 12:09:25;;;;;;;;;13.33;13.33;;;;;;;;5074648;28;45338;-75
2023/06/25 12:11:50;;;;;;;;;17.33;15.67;;;;;;;;5042006;28;45293;-75
2023/06/25 12:14:15;;;;;;;;;14.67;14.33;;;;;;;;5059722;28;45322;-75
2023/06/25 12:16:41;;;;;;;;;17.67;16.33;;;;;;;;5059366;28;45367;-74
2023/06/25 12:19:06;;;;;;;;;16.00;15.33;;;;;;;;5059845;28;45419;-75
2023/06/25 12:21:31;;;;;;;;;15.67;15.67;;;;;;;;5058932;28;45327;-74
2023/06/25 12:23:57;;;;;;;;;15.67;15.67;;;;;;;;5059607;28;45276;-75
2023/06/25 12:26:22;;;;;;;;;15.67;14.33;;;;;;;;5059732;28;45232;-75
2023/06/25 12:28:50;;;;;;;;;13.67;13.67;;;;;;;;5069221;27;45228;-75
2023/06/25 12:31:15;;;;;;;;;15.00;15.00;;;;;;;;5050448;28;45516;-76
2023/06/25 12:33:41;;;;;;;;;14.00;14.00;;;;;;;;5070167;28;45514;-77
2023/06/25 12:36:06;;;;;;;;;15.33;15.33;;;;;;;;5056114;28;47763;-76
2023/06/25 12:38:31;;;;;;;;;15.00;14.67;;;;;;;;5071844;28;45396;-77
2023/06/25 12:40:56;;;;;;;;;17.00;17.00;;;;;;;;5072219;28;45480;-77
2023/06/25 12:43:22;;;;;;;;;12.33;12.33;;;;;;;;5071828;28;45652;-76
2023/06/25 12:45:47;;;;;;;;;13.33;13.33;;;;;;;;5073370;28;46146;-76
2023/06/25 12:48:12;;;;;;;;;13.67;13.67;;;;;;;;5071682;28;45341;-76
2023/06/25 12:50:40;;;;;;;;;15.33;14.67;;;;;;;;5072473;28;45394;-76
2023/06/25 12:53:06;;;;;;;;;12.67;12.67;;;;;;;;5074283;28;45359;-76
2023/06/25 12:55:31;;;;;;;;;12.67;12.00;;;;;;;;5071250;28;45303;-76
2023/06/25 12:57:56;;;;;;;;;13.33;13.33;;;;;;;;5073125;28;45306;-76
2023/06/25 13:00:22;;;;;;;;;15.00;14.00;;;;;;;;5080201;28;45690;-77
2023/06/25 13:02:47;;;;;;;;;13.00;13.00;;;;;;;;5059202;28;46197;-80
2023/06/25 13:05:12;;;;;;;;;13.67;13.67;;;;;;;;5071605;28;46323;-77
2023/06/25 13:07:37;;;;;;;;;12.67;12.67;;;;;;;;5071924;28;45377;-78
2023/06/25 13:10:03;;;;;;;;;14.33;14.33;;;;;;;;5073382;28;45483;-76
2023/06/25 13:12:28;;;;;;;;;13.00;13.00;;;;;;;;5070572;28;45374;-77
2023/06/25 13:14:53;;;;;;;;;12.67;12.67;;;;;;;;5063269;28;47154;-75
2023/06/25 13:17:19;;;;;;;;;13.67;13.67;;;;;;;;5064877;28;45212;-76
2023/06/25 13:19:44;;;;;;;;;12.67;12.67;;;;;;;;5063397;28;45271;-76
2023/06/25 13:22:09;;;;;;;;;13.00;13.00;;;;;;;;5065732;28;45155;-76
2023/06/25 13:24:35;;;;;;;;;15.67;14.00;;;;;;;;5044342;28;47202;-76
2023/06/25 13:27:01;;;;;;;;;13.67;13.00;;;;;;;;5064545;28;45369;-75
2023/06/25 13:29:27;;;;;;;;;14.00;14.00;;;;;;;;5082008;27;45441;-77
2023/06/25 13:31:52;;;;;;;;;12.00;12.00;;;;;;;;5103160;27;45405;-75
2023/06/25 13:34:17;;;;;;;;;14.33;14.33;;;;;;;;5103012;27;46015;-76
2023/06/25 13:36:42;;;;;;;;;15.00;15.00;;;;;;;;5102792;27;45524;-76
2023/06/25 13:39:07;;;;;;;;;15.33;15.33;;;;;;;;5103270;27;45368;-75
2023/06/25 13:41:33;;;;;;;;;10.67;10.67;;;;;;;;5102043;27;45380;-75
2023/06/25 13:43:58;;;;;;;;;14.67;14.67;;;;;;;;5102424;27;45443;-75
2023/06/25 13:46:23;;;;;;;;;12.67;12.67;;;;;;;;5084694;27;45874;-76
2023/06/25 13:48:48;;;;;;;;;16.33;16.00;;;;;;;;5103067;27;45362;-76
2023/06/25 13:51:13;;;;;;;;;14.33;14.33;;;;;;;;5084303;27;46091;-75
2023/06/25 13:53:42;;;;;;;;;15.00;14.33;;;;;;;;5103164;27;46281;-77
2023/06/25 13:56:07;;;;;;;;;13.00;13.00;;;;;;;;5104045;27;45364;-77
2023/06/25 13:58:32;;;;;;;;;15.67;15.67;;;;;;;;5102910;27;45263;-76
2023/06/25 14:00:57;;;;;;;;;13.67;13.33;;;;;;;;5102648;27;45547;-76
2023/06/25 14:03:23;;;;;;;;;15.00;15.00;;;;;;;;5102349;27;45300;-75
2023/06/25 14:05:49;;;;;;;;;16.33;16.33;;;;;;;;5102438;27;45576;-76
2023/06/25 14:08:14;;;;;;;;;15.00;15.00;;;;;;;;5102703;27;45193;-77